sensor_id;sensor_type;location;lat;lon;timestamp;pressure;altitude;pressure_sealevel;temperature
61595;BMP280;47397;48.194;11.632;2022-09-09T00:00:47;95757.66;;;14.59
61595;BMP280;47397;48.194;11.632;2022-09-09T00:01:54;95767.84;;;14.61
61595;BMP280;47397;48.194;11.632;2022-09-09T00:03:02;95766.09;;;14.61
61595;BMP280;47397;48.194;11.632;2022-09-09T00:04:17;95758.09;;;14.49
61595;BMP280;47397;48.194;11.632;2022-09-09T00:05:31;95775.00;;;14.53
61595;BMP280;47397;48.194;11.632;2022-09-09T00:07:03;95778.59;;;14.47
61595;BMP280;47397;48.194;11.632;2022-09-09T00:08:07;95772.59;;;14.48
61595;BMP280;47397;48.194;11.632;2022-09-09T00:09:43;95780.88;;;14.55
61595;BMP280;47397;48.194;11.632;2022-09-09T00:11:03;95775.44;;;14.40
61595;BMP280;47397;48.194;11.632;2022-09-09T00:12:14;95774.53;;;14.42
61595;BMP280;47397;48.194;11.632;2022-09-09T00:13:25;95773.19;;;14.55
61595;BMP280;47397;48.194;11.632;2022-09-09T00:14:38;95773.06;;;14.36
61595;BMP280;47397;48.194;11.632;2022-09-09T00:15:50;95773.19;;;14.55
61595;BMP280;47397;48.194;11.632;2022-09-09T00:16:57;95775.00;;;14.53
61595;BMP280;47397;48.194;11.632;2022-09-09T00:18:18;95770.78;;;14.52
61595;BMP280;47397;48.194;11.632;2022-09-09T00:21:11;95768.16;;;14.53
61595;BMP280;47397;48.194;11.632;2022-09-09T00:23:53;95765.06;;;14.23
61595;BMP280;47397;48.194;11.632;2022-09-09T00:25:01;95750.91;;;14.36
61595;BMP280;47397;48.194;11.632;2022-09-09T00:26:08;95764.91;;;14.48
61595;BMP280;47397;48.194;11.632;2022-09-09T00:27:19;95765.53;;;14.55
61595;BMP280;47397;48.194;11.632;2022-09-09T00:28:22;95752.53;;;14.59
61595;BMP280;47397;48.194;11.632;2022-09-09T00:29:36;95746.75;;;14.12
61595;BMP280;47397;48.194;11.632;2022-09-09T00:30:58;95763.03;;;14.31
61595;BMP280;47397;48.194;11.632;2022-09-09T00:32:09;95750.31;;;14.30
61595;BMP280;47397;48.194;11.632;2022-09-09T00:33:13;95756.06;;;14.35
61595;BMP280;47397;48.194;11.632;2022-09-09T00:34:23;95758.56;;;14.36
61595;BMP280;47397;48.194;11.632;2022-09-09T00:35:24;95765.88;;;14.46
61595;BMP280;47397;48.194;11.632;2022-09-09T00:36:31;95753.44;;;14.36
61595;BMP280;47397;48.194;11.632;2022-09-09T00:37:36;95764.00;;;14.51
61595;BMP280;47397;48.194;11.632;2022-09-09T00:39:00;95746.19;;;14.48
61595;BMP280;47397;48.194;11.632;2022-09-09T00:40:12;95758.00;;;14.52
61595;BMP280;47397;48.194;11.632;2022-09-09T00:41:22;95751.91;;;14.54
61595;BMP280;47397;48.194;11.632;2022-09-09T00:42:39;95763.28;;;14.67
61595;BMP280;47397;48.194;11.632;2022-09-09T00:43:46;95764.88;;;14.50
61595;BMP280;47397;48.194;11.632;2022-09-09T00:44:59;95766.00;;;14.43
61595;BMP280;47397;48.194;11.632;2022-09-09T00:47:43;95764.75;;;14.31
61595;BMP280;47397;48.194;11.632;2022-09-09T00:48:58;95759.59;;;14.32
61595;BMP280;47397;48.194;11.632;2022-09-09T00:50:02;95761.31;;;14.32
61595;BMP280;47397;48.194;11.632;2022-09-09T00:51:33;95760.94;;;14.41
61595;BMP280;47397;48.194;11.632;2022-09-09T00:52:39;95766.50;;;14.52
61595;BMP280;47397;48.194;11.632;2022-09-09T00:54:03;95754.53;;;14.53
61595;BMP280;47397;48.194;11.632;2022-09-09T00:55:16;95756.41;;;14.48
61595;BMP280;47397;48.194;11.632;2022-09-09T00:56:29;95752.88;;;14.52
61595;BMP280;47397;48.194;11.632;2022-09-09T00:57:35;95752.44;;;14.40
61595;BMP280;47397;48.194;11.632;2022-09-09T00:58:36;95755.59;;;14.47
61595;BMP280;47397;48.194;11.632;2022-09-09T00:59:46;95770.94;;;14.47
61595;BMP280;47397;48.194;11.632;2022-09-09T01:00:50;95775.06;;;14.51
61595;BMP280;47397;48.194;11.632;2022-09-09T01:01:54;95756.78;;;14.38
61595;BMP280;47397;48.194;11.632;2022-09-09T01:03:25;95771.66;;;14.51
61595;BMP280;47397;48.194;11.632;2022-09-09T01:06:19;95764.31;;;14.42
61595;BMP280;47397;48.194;11.632;2022-09-09T01:07:24;95775.34;;;14.44
61595;BMP280;47397;48.194;11.632;2022-09-09T01:08:36;95763.75;;;14.35
61595;BMP280;47397;48.194;11.632;2022-09-09T01:09:51;95756.50;;;14.24
61595;BMP280;47397;48.194;11.632;2022-09-09T01:10:58;95766.94;;;14.40
61595;BMP280;47397;48.194;11.632;2022-09-09T01:12:09;95762.13;;;14.32
61595;BMP280;47397;48.194;11.632;2022-09-09T01:13:25;95751.88;;;14.12
61595;BMP280;47397;48.194;11.632;2022-09-09T01:14:50;95756.78;;;14.18
61595;BMP280;47397;48.194;11.632;2022-09-09T01:17:17;95764.91;;;14.06
61595;BMP280;47397;48.194;11.632;2022-09-09T01:18:21;95751.16;;;14.08
61595;BMP280;47397;48.194;11.632;2022-09-09T01:19:37;95768.94;;;14.12
61595;BMP280;47397;48.194;11.632;2022-09-09T01:20:49;95774.41;;;14.24
61595;BMP280;47397;48.194;11.632;2022-09-09T01:21:59;95769.66;;;14.15
61595;BMP280;47397;48.194;11.632;2022-09-09T01:23:25;95771.34;;;14.16
61595;BMP280;47397;48.194;11.632;2022-09-09T01:24:38;95768.00;;;14.14
61595;BMP280;47397;48.194;11.632;2022-09-09T01:26:07;95771.22;;;14.19
61595;BMP280;47397;48.194;11.632;2022-09-09T01:27:13;95764.63;;;14.14
61595;BMP280;47397;48.194;11.632;2022-09-09T01:28:22;95756.91;;;14.15
61595;BMP280;47397;48.194;11.632;2022-09-09T01:29:32;95779.13;;;14.13
61595;BMP280;47397;48.194;11.632;2022-09-09T01:30:41;95774.00;;;14.13
61595;BMP280;47397;48.194;11.632;2022-09-09T01:31:57;95780.09;;;14.09
61595;BMP280;47397;48.194;11.632;2022-09-09T01:33:00;95763.06;;;14.09
61595;BMP280;47397;48.194;11.632;2022-09-09T01:34:12;95770.13;;;14.25
61595;BMP280;47397;48.194;11.632;2022-09-09T01:35:35;95759.44;;;14.15
61595;BMP280;47397;48.194;11.632;2022-09-09T01:36:49;95768.91;;;14.33
61595;BMP280;47397;48.194;11.632;2022-09-09T01:37:58;95766.22;;;14.36
61595;BMP280;47397;48.194;11.632;2022-09-09T01:39:04;95768.78;;;14.36
61595;BMP280;47397;48.194;11.632;2022-09-09T01:40:10;95763.16;;;14.28
61595;BMP280;47397;48.194;11.632;2022-09-09T01:41:18;95765.34;;;14.37
61595;BMP280;47397;48.194;11.632;2022-09-09T01:42:38;95773.63;;;14.22
61595;BMP280;47397;48.194;11.632;2022-09-09T01:43:59;95755.50;;;14.28
61595;BMP280;47397;48.194;11.632;2022-09-09T01:45:14;95754.59;;;14.29
61595;BMP280;47397;48.194;11.632;2022-09-09T01:46:19;95758.06;;;14.28
61595;BMP280;47397;48.194;11.632;2022-09-09T01:47:39;95768.28;;;14.28
61595;BMP280;47397;48.194;11.632;2022-09-09T01:48:43;95767.38;;;14.29
61595;BMP280;47397;48.194;11.632;2022-09-09T01:49:47;95759.31;;;14.18
61595;BMP280;47397;48.194;11.632;2022-09-09T01:50:48;95760.16;;;14.19
61595;BMP280;47397;48.194;11.632;2022-09-09T01:51:52;95765.06;;;14.23
61595;BMP280;47397;48.194;11.632;2022-09-09T01:52:59;95780.09;;;14.31
61595;BMP280;47397;48.194;11.632;2022-09-09T01:54:08;95758.19;;;14.25
61595;BMP280;47397;48.194;11.632;2022-09-09T01:55:10;95758.75;;;14.32
61595;BMP280;47397;48.194;11.632;2022-09-09T01:56:35;95756.66;;;14.21
61595;BMP280;47397;48.194;11.632;2022-09-09T01:57:52;95761.22;;;14.13
61595;BMP280;47397;48.194;11.632;2022-09-09T01:59:16;95772.94;;;14.19
61595;BMP280;47397;48.194;11.632;2022-09-09T02:00:24;95769.66;;;14.15
61595;BMP280;47397;48.194;11.632;2022-09-09T02:01:50;95763.78;;;14.13
61595;BMP280;47397;48.194;11.632;2022-09-09T02:03:10;95774.72;;;14.17
61595;BMP280;47397;48.194;11.632;2022-09-09T02:04:37;95772.88;;;14.20
61595;BMP280;47397;48.194;11.632;2022-09-09T02:05:59;95771.66;;;14.07
61595;BMP280;47397;48.194;11.632;2022-09-09T02:07:08;95776.91;;;14.04
61595;BMP280;47397;48.194;11.632;2022-09-09T02:08:12;95764.50;;;13.95
61595;BMP280;47397;48.194;11.632;2022-09-09T02:09:19;95771.97;;;13.99
61595;BMP280;47397;48.194;11.632;2022-09-09T02:10:35;95770.91;;;14.05
61595;BMP280;47397;48.194;11.632;2022-09-09T02:11:48;95772.16;;;13.95
61595;BMP280;47397;48.194;11.632;2022-09-09T02:13:05;95765.22;;;13.98
61595;BMP280;47397;48.194;11.632;2022-09-09T02:14:21;95774.34;;;14.04
61595;BMP280;47397;48.194;11.632;2022-09-09T02:15:29;95759.38;;;13.95
61595;BMP280;47397;48.194;11.632;2022-09-09T02:16:36;95755.41;;;13.88
61595;BMP280;47397;48.194;11.632;2022-09-09T02:17:44;95762.28;;;14.07
61595;BMP280;47397;48.194;11.632;2022-09-09T02:18:49;95765.16;;;14.00
61595;BMP280;47397;48.194;11.632;2022-09-09T02:20:03;95763.66;;;13.94
61595;BMP280;47397;48.194;11.632;2022-09-09T02:21:05;95759.84;;;14.04
61595;BMP280;47397;48.194;11.632;2022-09-09T02:22:19;95762.84;;;14.16
61595;BMP280;47397;48.194;11.632;2022-09-09T02:23:46;95750.13;;;14.14
61595;BMP280;47397;48.194;11.632;2022-09-09T02:24:49;95758.31;;;14.22
61595;BMP280;47397;48.194;11.632;2022-09-09T02:25:54;95740.00;;;14.11
61595;BMP280;47397;48.194;11.632;2022-09-09T02:26:58;95747.63;;;14.13
61595;BMP280;47397;48.194;11.632;2022-09-09T02:28:06;95758.00;;;14.08
61595;BMP280;47397;48.194;11.632;2022-09-09T02:29:12;95753.56;;;13.91
61595;BMP280;47397;48.194;11.632;2022-09-09T02:30:16;95752.19;;;14.04
61595;BMP280;47397;48.194;11.632;2022-09-09T02:31:22;95753.38;;;13.96
61595;BMP280;47397;48.194;11.632;2022-09-09T02:32:25;95757.06;;;13.89
61595;BMP280;47397;48.194;11.632;2022-09-09T02:33:28;95756.94;;;13.92
61595;BMP280;47397;48.194;11.632;2022-09-09T02:34:33;95755.72;;;13.80
61595;BMP280;47397;48.194;11.632;2022-09-09T02:35:42;95757.91;;;13.89
61595;BMP280;47397;48.194;11.632;2022-09-09T02:36:45;95748.41;;;13.93
61595;BMP280;47397;48.194;11.632;2022-09-09T02:37:55;95750.72;;;13.77
61595;BMP280;47397;48.194;11.632;2022-09-09T02:39:03;95760.53;;;13.88
61595;BMP280;47397;48.194;11.632;2022-09-09T02:40:08;95746.03;;;13.88
61595;BMP280;47397;48.194;11.632;2022-09-09T02:41:09;95746.44;;;13.99
61595;BMP280;47397;48.194;11.632;2022-09-09T02:42:11;95757.53;;;13.98
61595;BMP280;47397;48.194;11.632;2022-09-09T02:43:15;95739.34;;;14.06
61595;BMP280;47397;48.194;11.632;2022-09-09T02:44:17;95745.28;;;14.06
61595;BMP280;47397;48.194;11.632;2022-09-09T02:45:19;95751.72;;;13.95
61595;BMP280;47397;48.194;11.632;2022-09-09T02:46:32;95745.19;;;13.88
61595;BMP280;47397;48.194;11.632;2022-09-09T02:47:46;95735.22;;;13.82
61595;BMP280;47397;48.194;11.632;2022-09-09T02:48:54;95743.34;;;13.91
61595;BMP280;47397;48.194;11.632;2022-09-09T02:50:04;95739.84;;;13.94
61595;BMP280;47397;48.194;11.632;2022-09-09T02:51:08;95745.34;;;14.05
61595;BMP280;47397;48.194;11.632;2022-09-09T02:52:13;95746.38;;;14.01
61595;BMP280;47397;48.194;11.632;2022-09-09T02:53:19;95745.19;;;13.88
61595;BMP280;47397;48.194;11.632;2022-09-09T02:54:27;95748.34;;;13.94
61595;BMP280;47397;48.194;11.632;2022-09-09T02:55:36;95757.72;;;13.94
61595;BMP280;47397;48.194;11.632;2022-09-09T02:56:40;95758.44;;;13.97
61595;BMP280;47397;48.194;11.632;2022-09-09T02:57:44;95752.38;;;14.00
61595;BMP280;47397;48.194;11.632;2022-09-09T02:58:46;95759.38;;;13.95
61595;BMP280;47397;48.194;11.632;2022-09-09T02:59:46;95753.97;;;14.02
61595;BMP280;47397;48.194;11.632;2022-09-09T03:00:50;95749.44;;;14.09
61595;BMP280;47397;48.194;11.632;2022-09-09T03:01:50;95749.81;;;14.00
61595;BMP280;47397;48.194;11.632;2022-09-09T03:02:51;95759.44;;;13.93
61595;BMP280;47397;48.194;11.632;2022-09-09T03:03:52;95758.09;;;13.85
61595;BMP280;47397;48.194;11.632;2022-09-09T03:04:52;95755.66;;;13.82
61595;BMP280;47397;48.194;11.632;2022-09-09T03:05:53;95756.72;;;13.76
61595;BMP280;47397;48.194;11.632;2022-09-09T03:06:53;95757.78;;;13.70
61595;BMP280;47397;48.194;11.632;2022-09-09T03:07:54;95755.91;;;13.75
61595;BMP280;47397;48.194;11.632;2022-09-09T03:08:54;95760.31;;;13.70
61595;BMP280;47397;48.194;11.632;2022-09-09T03:09:55;95750.53;;;13.82
61595;BMP280;47397;48.194;11.632;2022-09-09T03:10:58;95754.25;;;13.73
61595;BMP280;47397;48.194;11.632;2022-09-09T03:12:08;95750.66;;;13.79
61595;BMP280;47397;48.194;11.632;2022-09-09T03:13:10;95755.22;;;13.70
61595;BMP280;47397;48.194;11.632;2022-09-09T03:14:10;95747.16;;;13.81
61595;BMP280;47397;48.194;11.632;2022-09-09T03:15:11;95741.94;;;13.84
61595;BMP280;47397;48.194;11.632;2022-09-09T03:16:11;95741.34;;;13.77
61595;BMP280;47397;48.194;11.632;2022-09-09T03:17:12;95748.13;;;13.79
61595;BMP280;47397;48.194;11.632;2022-09-09T03:18:12;95749.22;;;13.71
61595;BMP280;47397;48.194;11.632;2022-09-09T03:19:13;95746.44;;;13.77
61595;BMP280;47397;48.194;11.632;2022-09-09T03:20:13;95749.91;;;13.76
61595;BMP280;47397;48.194;11.632;2022-09-09T03:21:13;95748.06;;;13.80
61595;BMP280;47397;48.194;11.632;2022-09-09T03:22:14;95747.03;;;13.84
61595;BMP280;47397;48.194;11.632;2022-09-09T03:23:14;95750.69;;;13.55
61595;BMP280;47397;48.194;11.632;2022-09-09T03:24:15;95746.78;;;13.68
61595;BMP280;47397;48.194;11.632;2022-09-09T03:25:15;95751.97;;;13.89
61595;BMP280;47397;48.194;11.632;2022-09-09T03:26:16;95742.06;;;13.81
61595;BMP280;47397;48.194;11.632;2022-09-09T03:27:16;95747.38;;;13.75
61595;BMP280;47397;48.194;11.632;2022-09-09T03:28:18;95749.16;;;13.73
61595;BMP280;47397;48.194;11.632;2022-09-09T03:29:19;95749.91;;;13.76
61595;BMP280;47397;48.194;11.632;2022-09-09T03:30:19;95747.22;;;13.80
61595;BMP280;47397;48.194;11.632;2022-09-09T03:31:20;95746.34;;;13.81
61595;BMP280;47397;48.194;11.632;2022-09-09T03:32:20;95747.28;;;13.78
61595;BMP280;47397;48.194;11.632;2022-09-09T03:33:21;95748.13;;;13.79
61595;BMP280;47397;48.194;11.632;2022-09-09T03:34:21;95744.88;;;13.73
61595;BMP280;47397;48.194;11.632;2022-09-09T03:35:22;95746.53;;;13.74
61595;BMP280;47397;48.194;11.632;2022-09-09T03:36:22;95741.66;;;13.68
61595;BMP280;47397;48.194;11.632;2022-09-09T03:37:23;95739.78;;;13.73
61595;BMP280;47397;48.194;11.632;2022-09-09T03:38:23;95738.09;;;13.72
61595;BMP280;47397;48.194;11.632;2022-09-09T03:39:24;95738.09;;;13.72
61595;BMP280;47397;48.194;11.632;2022-09-09T03:40:24;95736.31;;;13.74
61595;BMP280;47397;48.194;11.632;2022-09-09T03:41:25;95741.50;;;13.51
61595;BMP280;47397;48.194;11.632;2022-09-09T03:42:25;95742.88;;;13.60
61595;BMP280;47397;48.194;11.632;2022-09-09T03:43:28;95741.19;;;13.59
61595;BMP280;47397;48.194;11.632;2022-09-09T03:44:29;95741.78;;;13.65
61595;BMP280;47397;48.194;11.632;2022-09-09T03:45:29;95745.94;;;13.68
61595;BMP280;47397;48.194;11.632;2022-09-09T03:46:30;95743.56;;;13.63
61595;BMP280;47397;48.194;11.632;2022-09-09T03:47:30;95735.97;;;13.62
61595;BMP280;47397;48.194;11.632;2022-09-09T03:48:30;95738.94;;;13.73
61595;BMP280;47397;48.194;11.632;2022-09-09T03:49:31;95736.69;;;13.65
61595;BMP280;47397;48.194;11.632;2022-09-09T03:50:31;95739.53;;;13.58
61595;BMP280;47397;48.194;11.632;2022-09-09T03:51:32;95736.69;;;13.65
61595;BMP280;47397;48.194;11.632;2022-09-09T03:52:34;95730.50;;;13.71
61595;BMP280;47397;48.194;11.632;2022-09-09T03:53:35;95734.84;;;13.69
61595;BMP280;47397;48.194;11.632;2022-09-09T03:54:35;95737.16;;;13.75
61595;BMP280;47397;48.194;11.632;2022-09-09T03:55:36;95740.59;;;13.74
61595;BMP280;47397;48.194;11.632;2022-09-09T03:56:36;95736.94;;;13.81
61595;BMP280;47397;48.194;11.632;2022-09-09T03:57:37;95735.81;;;13.88
61595;BMP280;47397;48.194;11.632;2022-09-09T03:58:38;95734.22;;;13.86
61595;BMP280;47397;48.194;11.632;2022-09-09T03:59:39;95735.72;;;13.68
61595;BMP280;47397;48.194;11.632;2022-09-09T04:00:40;95737.16;;;13.75
61595;BMP280;47397;48.194;11.632;2022-09-09T04:01:40;95736.03;;;13.60
61595;BMP280;47397;48.194;11.632;2022-09-09T04:02:41;95733.84;;;13.51
61595;BMP280;47397;48.194;11.632;2022-09-09T04:03:42;95735.16;;;13.61
61595;BMP280;47397;48.194;11.632;2022-09-09T04:04:42;95728.78;;;13.71
61595;BMP280;47397;48.194;11.632;2022-09-09T04:05:42;95736.38;;;13.73
61595;BMP280;47397;48.194;11.632;2022-09-09T04:06:43;95732.09;;;13.73
61595;BMP280;47397;48.194;11.632;2022-09-09T04:07:43;95729.03;;;13.65
61595;BMP280;47397;48.194;11.632;2022-09-09T04:08:44;95731.00;;;13.81
61595;BMP280;47397;48.194;11.632;2022-09-09T04:09:44;95730.00;;;13.85
61595;BMP280;47397;48.194;11.632;2022-09-09T04:10:45;95729.09;;;13.86
61595;BMP280;47397;48.194;11.632;2022-09-09T04:11:45;95731.78;;;13.83
61595;BMP280;47397;48.194;11.632;2022-09-09T04:12:46;95727.97;;;13.93
61595;BMP280;47397;48.194;11.632;2022-09-09T04:13:48;95727.78;;;13.97
61595;BMP280;47397;48.194;11.632;2022-09-09T04:14:48;95728.41;;;14.02
61595;BMP280;47397;48.194;11.632;2022-09-09T04:15:50;95731.28;;;13.95
61595;BMP280;47397;48.194;11.632;2022-09-09T04:16:51;95730.19;;;14.00
61595;BMP280;47397;48.194;11.632;2022-09-09T04:17:51;95733.59;;;14.01
61595;BMP280;47397;48.194;11.632;2022-09-09T04:18:52;95727.72;;;13.99
61595;BMP280;47397;48.194;11.632;2022-09-09T04:19:52;95724.38;;;13.97
61595;BMP280;47397;48.194;11.632;2022-09-09T04:20:53;95723.56;;;13.96
61595;BMP280;47397;48.194;11.632;2022-09-09T04:21:53;95729.56;;;13.95
61595;BMP280;47397;48.194;11.632;2022-09-09T04:22:54;95725.16;;;13.99
61595;BMP280;47397;48.194;11.632;2022-09-09T04:23:54;95717.94;;;13.88
61595;BMP280;47397;48.194;11.632;2022-09-09T04:24:55;95718.31;;;13.99
61595;BMP280;47397;48.194;11.632;2022-09-09T04:25:57;95716.34;;;14.06
61595;BMP280;47397;48.194;11.632;2022-09-09T04:26:57;95726.44;;;14.09
61595;BMP280;47397;48.194;11.632;2022-09-09T04:27:58;95719.72;;;14.06
61595;BMP280;47397;48.194;11.632;2022-09-09T04:29:00;95726.44;;;14.09
61595;BMP280;47397;48.194;11.632;2022-09-09T04:30:04;95718.66;;;14.12
61595;BMP280;47397;48.194;11.632;2022-09-09T04:31:06;95719.53;;;14.11
61595;BMP280;47397;48.194;11.632;2022-09-09T04:32:06;95722.91;;;14.13
61595;BMP280;47397;48.194;11.632;2022-09-09T04:33:07;95713.31;;;14.18
61595;BMP280;47397;48.194;11.632;2022-09-09T04:34:08;95716.75;;;14.17
61595;BMP280;47397;48.194;11.632;2022-09-09T04:35:09;95713.66;;;14.09
61595;BMP280;47397;48.194;11.632;2022-09-09T04:36:10;95709.22;;;14.14
61595;BMP280;47397;48.194;11.632;2022-09-09T04:37:10;95709.28;;;14.13
61595;BMP280;47397;48.194;11.632;2022-09-09T04:38:10;95710.13;;;14.13
61595;BMP280;47397;48.194;11.632;2022-09-09T04:39:11;95708.50;;;14.11
61595;BMP280;47397;48.194;11.632;2022-09-09T04:40:11;95705.22;;;14.07
61595;BMP280;47397;48.194;11.632;2022-09-09T04:41:12;95704.47;;;14.05
61595;BMP280;47397;48.194;11.632;2022-09-09T04:42:12;95701.00;;;14.06
61595;BMP280;47397;48.194;11.632;2022-09-09T04:43:14;95706.50;;;13.97
61595;BMP280;47397;48.194;11.632;2022-09-09T04:44:16;95704.47;;;14.05
61595;BMP280;47397;48.194;11.632;2022-09-09T04:45:17;95711.47;;;14.00
61595;BMP280;47397;48.194;11.632;2022-09-09T04:46:18;95703.75;;;14.01
61595;BMP280;47397;48.194;11.632;2022-09-09T04:47:18;95706.38;;;14.00
61595;BMP280;47397;48.194;11.632;2022-09-09T04:48:19;95708.88;;;14.01
61595;BMP280;47397;48.194;11.632;2022-09-09T04:49:20;95709.69;;;14.02
61595;BMP280;47397;48.194;11.632;2022-09-09T04:50:20;95713.84;;;14.04
61595;BMP280;47397;48.194;11.632;2022-09-09T04:51:21;95715.56;;;14.04
61595;BMP280;47397;48.194;11.632;2022-09-09T04:52:22;95716.22;;;14.09
61595;BMP280;47397;48.194;11.632;2022-09-09T04:53:23;95723.13;;;14.07
61595;BMP280;47397;48.194;11.632;2022-09-09T04:54:24;95713.41;;;13.95
61595;BMP280;47397;48.194;11.632;2022-09-09T04:55:24;95716.00;;;13.93
61595;BMP280;47397;48.194;11.632;2022-09-09T04:56:25;95712.56;;;13.94
61595;BMP280;47397;48.194;11.632;2022-09-09T04:57:25;95712.81;;;13.88
61595;BMP280;47397;48.194;11.632;2022-09-09T04:58:26;95718.88;;;13.86
61595;BMP280;47397;48.194;11.632;2022-09-09T04:59:27;95714.53;;;13.88
61595;BMP280;47397;48.194;11.632;2022-09-09T05:00:28;95703.66;;;13.83
61595;BMP280;47397;48.194;11.632;2022-09-09T05:01:29;95706.75;;;13.91
61595;BMP280;47397;48.194;11.632;2022-09-09T05:02:30;95702.28;;;13.96
61595;BMP280;47397;48.194;11.632;2022-09-09T05:03:30;95703.31;;;13.92
61595;BMP280;47397;48.194;11.632;2022-09-09T05:04:31;95706.50;;;13.97
61595;BMP280;47397;48.194;11.632;2022-09-09T05:05:32;95702.09;;;14.00
61595;BMP280;47397;48.194;11.632;2022-09-09T05:06:33;95705.97;;;13.89
61595;BMP280;47397;48.194;11.632;2022-09-09T05:07:33;95708.66;;;13.86
61595;BMP280;47397;48.194;11.632;2022-09-09T05:08:34;95706.16;;;13.84
61595;BMP280;47397;48.194;11.632;2022-09-09T05:09:34;95707.66;;;13.90
61595;BMP280;47397;48.194;11.632;2022-09-09T05:10:37;95709.38;;;13.89
61595;BMP280;47397;48.194;11.632;2022-09-09T05:11:38;95715.19;;;13.93
61595;BMP280;47397;48.194;11.632;2022-09-09T05:12:38;95712.88;;;13.87
61595;BMP280;47397;48.194;11.632;2022-09-09T05:13:38;95712.81;;;13.88
61595;BMP280;47397;48.194;11.632;2022-09-09T05:14:40;95707.19;;;13.80
61595;BMP280;47397;48.194;11.632;2022-09-09T05:15:41;95719.91;;;13.82
61595;BMP280;47397;48.194;11.632;2022-09-09T05:16:41;95719.13;;;13.80
61595;BMP280;47397;48.194;11.632;2022-09-09T05:17:41;95724.09;;;13.83
61595;BMP280;47397;48.194;11.632;2022-09-09T05:18:42;95722.97;;;13.68
61595;BMP280;47397;48.194;11.632;2022-09-09T05:19:43;95724.09;;;13.83
61595;BMP280;47397;48.194;11.632;2022-09-09T05:20:44;95731.97;;;13.78
61595;BMP280;47397;48.194;11.632;2022-09-09T05:21:44;95734.50;;;13.78
61595;BMP280;47397;48.194;11.632;2022-09-09T05:22:45;95737.00;;;13.80
61595;BMP280;47397;48.194;11.632;2022-09-09T05:23:46;95740.28;;;13.83
61595;BMP280;47397;48.194;11.632;2022-09-09T05:24:46;95729.03;;;13.87
61595;BMP280;47397;48.194;11.632;2022-09-09T05:25:55;95738.72;;;13.79
61595;BMP280;47397;48.194;11.632;2022-09-09T05:26:56;95737.72;;;13.83
61595;BMP280;47397;48.194;11.632;2022-09-09T05:27:58;95736.94;;;13.81
61595;BMP280;47397;48.194;11.632;2022-09-09T05:28:58;95732.34;;;13.89
61595;BMP280;47397;48.194;11.632;2022-09-09T05:30:00;95735.69;;;13.91
61595;BMP280;47397;48.194;11.632;2022-09-09T05:31:05;95735.56;;;13.94
61595;BMP280;47397;48.194;11.632;2022-09-09T05:32:05;95729.63;;;13.94
61595;BMP280;47397;48.194;11.632;2022-09-09T05:33:06;95726.81;;;14.00
61595;BMP280;47397;48.194;11.632;2022-09-09T05:34:06;95730.84;;;14.05
61595;BMP280;47397;48.194;11.632;2022-09-09T05:35:07;95733.00;;;13.94
61595;BMP280;47397;48.194;11.632;2022-09-09T05:36:08;95742.59;;;13.89
61595;BMP280;47397;48.194;11.632;2022-09-09T05:37:09;95739.06;;;13.92
61595;BMP280;47397;48.194;11.632;2022-09-09T05:38:10;95740.03;;;13.89
61595;BMP280;47397;48.194;11.632;2022-09-09T05:39:13;95744.06;;;13.95
61595;BMP280;47397;48.194;11.632;2022-09-09T05:40:14;95734.97;;;13.88
61595;BMP280;47397;48.194;11.632;2022-09-09T05:41:16;95745.66;;;13.97
61595;BMP280;47397;48.194;11.632;2022-09-09T05:42:16;95738.25;;;13.91
61595;BMP280;47397;48.194;11.632;2022-09-09T05:43:17;95739.97;;;13.91
61595;BMP280;47397;48.194;11.632;2022-09-09T05:44:17;95735.75;;;13.90
61595;BMP280;47397;48.194;11.632;2022-09-09T05:45:19;95732.28;;;13.91
61595;BMP280;47397;48.194;11.632;2022-09-09T05:46:20;95736.97;;;14.01
61595;BMP280;47397;48.194;11.632;2022-09-09T05:47:21;95739.47;;;14.03
61595;BMP280;47397;48.194;11.632;2022-09-09T05:48:21;95737.03;;;14.00
61595;BMP280;47397;48.194;11.632;2022-09-09T05:49:22;95732.56;;;14.05
61595;BMP280;47397;48.194;11.632;2022-09-09T05:50:22;95739.53;;;14.01
61595;BMP280;47397;48.194;11.632;2022-09-09T05:51:24;95732.22;;;13.92
61595;BMP280;47397;48.194;11.632;2022-09-09T05:52:25;95730.13;;;14.02
61595;BMP280;47397;48.194;11.632;2022-09-09T05:53:26;95737.94;;;13.99
61595;BMP280;47397;48.194;11.632;2022-09-09T05:54:26;95737.09;;;13.98
61595;BMP280;47397;48.194;11.632;2022-09-09T05:55:27;95737.03;;;14.00
61595;BMP280;47397;48.194;11.632;2022-09-09T05:56:28;95744.50;;;14.04
61595;BMP280;47397;48.194;11.632;2022-09-09T05:57:29;95740.88;;;14.10
61595;BMP280;47397;48.194;11.632;2022-09-09T05:58:30;95744.22;;;14.12
61595;BMP280;47397;48.194;11.632;2022-09-09T05:59:30;95740.31;;;14.03
61595;BMP280;47397;48.194;11.632;2022-09-09T06:00:32;95743.34;;;14.13
61595;BMP280;47397;48.194;11.632;2022-09-09T06:01:35;95739.09;;;14.12
61595;BMP280;47397;48.194;11.632;2022-09-09T06:02:35;95738.09;;;14.16
61595;BMP280;47397;48.194;11.632;2022-09-09T06:03:37;95742.97;;;14.22
61595;BMP280;47397;48.194;11.632;2022-09-09T06:04:37;95734.41;;;14.23
61595;BMP280;47397;48.194;11.632;2022-09-09T06:05:38;95740.41;;;14.22
61595;BMP280;47397;48.194;11.632;2022-09-09T06:06:39;95738.56;;;14.26
61595;BMP280;47397;48.194;11.632;2022-09-09T06:07:39;95739.38;;;14.26
61595;BMP280;47397;48.194;11.632;2022-09-09T06:08:44;95736.06;;;14.24
61595;BMP280;47397;48.194;11.632;2022-09-09T06:09:45;95742.91;;;14.24
61595;BMP280;47397;48.194;11.632;2022-09-09T06:10:45;95745.34;;;14.27
61595;BMP280;47397;48.194;11.632;2022-09-09T06:11:49;95741.69;;;14.32
61595;BMP280;47397;48.194;11.632;2022-09-09T06:12:52;95747.44;;;14.37
61595;BMP280;47397;48.194;11.632;2022-09-09T06:13:53;95750.81;;;14.38
61595;BMP280;47397;48.194;11.632;2022-09-09T06:14:54;95751.50;;;14.43
61595;BMP280;47397;48.194;11.632;2022-09-09T06:15:56;95750.59;;;14.44
61595;BMP280;47397;48.194;11.632;2022-09-09T06:16:56;95752.19;;;14.47
61595;BMP280;47397;48.194;11.632;2022-09-09T06:17:57;95754.53;;;14.53